createdAt,value
2023-05-20T00:01:53.511Z,101565.88
2023-05-20T00:04:20.918Z,101551.22
2023-05-20T00:06:48.447Z,101545.00
2023-05-20T00:09:17.301Z,101553.16
2023-05-20T00:11:46.251Z,101548.72
2023-05-20T00:14:13.480Z,101547.31
2023-05-20T00:16:41.948Z,101551.97
2023-05-20T00:19:09.452Z,101549.75
2023-05-20T00:21:36.853Z,101544.66
2023-05-20T00:24:04.229Z,101545.00
2023-05-20T00:26:31.482Z,101561.03
2023-05-20T00:28:59.241Z,101547.38
2023-05-20T00:31:26.595Z,101541.66
2023-05-20T00:33:53.880Z,101545.88
2023-05-20T00:36:21.210Z,101543.41
2023-05-20T00:38:48.585Z,101543.28
2023-05-20T00:41:15.771Z,101546.25
2023-05-20T00:43:43.112Z,101543.97
2023-05-20T00:46:10.578Z,101537.97
2023-05-20T00:48:41.678Z,101530.31
2023-05-20T00:51:11.074Z,101518.25
2023-05-20T00:53:38.783Z,101519.66
2023-05-20T00:56:06.782Z,101507.59
2023-05-20T00:58:36.708Z,101520.81
2023-05-20T01:01:06.158Z,101518.44
2023-05-20T01:03:33.857Z,101521.06
2023-05-20T01:06:02.859Z,101517.03
2023-05-20T01:08:30.289Z,101508.09
2023-05-20T01:11:04.793Z,101499.00
2023-05-20T01:13:43.928Z,101509.16
2023-05-20T01:16:12.036Z,101521.72
2023-05-20T01:18:41.064Z,101511.72
2023-05-20T01:21:11.737Z,101506.84
2023-05-20T01:23:40.562Z,101517.06
2023-05-20T01:26:09.278Z,101507.34
2023-05-20T01:28:38.743Z,101513.09
2023-05-20T01:31:12.661Z,101503.34
2023-05-20T01:33:41.227Z,101490.25
2023-05-20T01:36:10.038Z,101502.66
2023-05-20T01:38:40.196Z,101489.41
2023-05-20T01:41:07.495Z,101497.06
2023-05-20T01:43:35.257Z,101496.22
2023-05-20T01:46:06.258Z,101486.19
2023-05-20T01:48:34.670Z,101488.75
2023-05-20T01:51:02.045Z,101486.19
2023-05-20T01:53:29.623Z,101487.41
2023-05-20T01:55:56.840Z,101488.50
2023-05-20T01:58:24.189Z,101486.06
2023-05-20T02:00:51.700Z,101480.78
2023-05-20T02:03:19.265Z,101485.81
2023-05-20T02:05:46.790Z,101478.78
2023-05-20T02:08:14.085Z,101465.16
2023-05-20T02:10:41.507Z,101478.28
2023-05-20T02:13:09.497Z,101475.13
2023-05-20T02:15:41.619Z,101476.72
2023-05-20T02:18:09.055Z,101479.19
2023-05-20T02:20:37.224Z,101472.19
2023-05-20T02:23:07.580Z,101478.00
2023-05-20T02:25:35.217Z,101470.41
2023-05-20T02:28:05.867Z,101473.19
2023-05-20T02:30:33.122Z,101476.59
2023-05-20T02:33:00.383Z,101477.56
2023-05-20T02:35:27.758Z,101474.94
2023-05-20T02:37:55.095Z,101478.41
2023-05-20T02:40:22.992Z,101475.03
2023-05-20T02:42:50.656Z,101472.88
2023-05-20T02:45:17.950Z,101471.84
2023-05-20T02:47:46.252Z,101462.81
2023-05-20T02:50:13.709Z,101465.03
2023-05-20T02:52:42.528Z,101468.84
2023-05-20T02:55:10.185Z,101467.25
2023-05-20T02:57:41.045Z,101459.28
2023-05-20T03:00:13.367Z,101463.69
2023-05-20T03:02:40.813Z,101457.88
2023-05-20T03:05:09.401Z,101456.53
2023-05-20T03:07:36.835Z,101464.31
2023-05-20T03:10:08.045Z,101454.28
2023-05-20T03:12:35.333Z,101456.41
2023-05-20T03:15:03.839Z,101455.81
2023-05-20T03:17:31.345Z,101460.94
2023-05-20T03:19:58.847Z,101460.66
2023-05-20T03:22:26.239Z,101466.16
2023-05-20T03:24:53.641Z,101458.72
2023-05-20T03:27:21.476Z,101454.13
2023-05-20T03:29:48.940Z,101453.66
2023-05-20T03:32:17.354Z,101445.13
2023-05-20T03:34:44.664Z,101451.00
2023-05-20T03:37:12.146Z,101448.91
2023-05-20T03:39:39.534Z,101447.31
2023-05-20T03:42:07.826Z,101436.25
2023-05-20T03:44:36.005Z,101434.28
2023-05-20T03:47:03.455Z,101443.88
2023-05-20T03:49:31.653Z,101435.97
2023-05-20T03:51:59.121Z,101433.50
2023-05-20T03:54:26.704Z,101435.44
2023-05-20T03:56:54.843Z,101434.81
2023-05-20T03:59:22.427Z,101434.28
2023-05-20T04:01:49.810Z,101433.31
2023-05-20T04:04:17.292Z,101437.31
2023-05-20T04:06:44.637Z,101431.34
2023-05-20T04:09:12.607Z,101439.44
2023-05-20T04:11:39.925Z,101426.59
2023-05-20T04:14:07.422Z,101427.59
2023-05-20T04:16:35.089Z,101435.97
2023-05-20T04:19:02.814Z,101428.28
2023-05-20T04:21:31.452Z,101436.53
2023-05-20T04:23:58.866Z,101430.03
2023-05-20T04:26:26.254Z,101433.56
2023-05-20T04:28:53.623Z,101427.34
2023-05-20T04:31:26.695Z,101435.81
2023-05-20T04:33:54.582Z,101428.00
2023-05-20T04:36:22.948Z,101424.69
2023-05-20T04:38:50.774Z,101422.56
2023-05-20T04:41:18.542Z,101428.13
2023-05-20T04:43:45.995Z,101426.31
2023-05-20T04:46:14.202Z,101437.38
2023-05-20T04:48:43.982Z,101428.19
2023-05-20T04:51:13.711Z,101425.72
2023-05-20T04:53:40.998Z,101424.63
2023-05-20T04:56:08.250Z,101427.19
2023-05-20T04:58:35.571Z,101422.81
2023-05-20T05:01:03.348Z,101430.34
2023-05-20T05:03:31.300Z,101421.38
2023-05-20T05:05:59.213Z,101430.31
2023-05-20T05:08:27.142Z,101430.03
2023-05-20T05:10:54.720Z,101441.59
2023-05-20T05:13:22.090Z,101427.38
2023-05-20T05:15:49.515Z,101427.59
2023-05-20T05:18:18.659Z,101423.59
2023-05-20T05:20:46.503Z,101412.56
2023-05-20T05:23:14.218Z,101416.44
2023-05-20T05:25:41.992Z,101425.84
2023-05-20T05:28:09.346Z,101412.94
2023-05-20T05:30:37.652Z,101415.81
2023-05-20T05:33:04.962Z,101411.84
2023-05-20T05:35:32.906Z,101414.28
2023-05-20T05:38:00.564Z,101415.84
2023-05-20T05:40:27.965Z,101421.44
2023-05-20T05:42:55.441Z,101426.16
2023-05-20T05:45:22.855Z,101421.94
2023-05-20T05:47:50.177Z,101418.22
2023-05-20T05:50:17.630Z,101415.44
2023-05-20T05:52:44.923Z,101417.09
2023-05-20T05:55:12.906Z,101418.22
2023-05-20T05:57:40.281Z,101416.53
2023-05-20T06:00:08.812Z,101410.50
2023-05-20T06:02:46.204Z,101404.50
2023-05-20T06:05:20.507Z,101408.13
2023-05-20T06:07:48.073Z,101400.34
2023-05-20T06:10:15.575Z,101403.94
2023-05-20T06:12:42.803Z,101411.44
2023-05-20T06:15:10.744Z,101405.16
2023-05-20T06:17:38.769Z,101399.59
2023-05-20T06:20:07.025Z,101398.88
2023-05-20T06:22:35.077Z,101398.63
2023-05-20T06:25:02.601Z,101403.88
2023-05-20T06:27:31.417Z,101396.38
2023-05-20T06:29:58.689Z,101396.66
2023-05-20T06:32:25.928Z,101393.47
2023-05-20T06:34:53.844Z,101397.94
2023-05-20T06:37:24.326Z,101389.16
2023-05-20T06:39:53.938Z,101384.50
2023-05-20T06:42:21.797Z,101390.91
2023-05-20T06:45:03.077Z,101385.44
2023-05-20T06:47:49.950Z,101379.19
2023-05-20T06:50:17.289Z,101382.09
2023-05-20T06:52:45.245Z,101382.69
2023-05-20T06:55:13.635Z,101365.78
2023-05-20T06:57:41.117Z,101372.75
2023-05-20T07:00:09.479Z,101379.41
2023-05-20T07:02:42.528Z,101383.72
2023-05-20T07:05:12.040Z,101372.09
2023-05-20T07:07:39.908Z,101377.66
2023-05-20T07:10:08.050Z,101381.94
2023-05-20T07:12:36.789Z,101376.41
2023-05-20T07:15:05.070Z,101378.25
2023-05-20T07:17:33.056Z,101372.63
2023-05-20T07:20:00.464Z,101369.59
2023-05-20T07:22:27.929Z,101371.81
2023-05-20T07:25:09.170Z,101367.63
2023-05-20T07:27:37.605Z,101365.44
2023-05-20T07:30:05.846Z,101364.81
2023-05-20T07:32:34.281Z,101357.84
2023-05-20T07:35:01.812Z,101364.34
2023-05-20T07:37:29.156Z,101365.63
2023-05-20T07:39:56.663Z,101364.13
2023-05-20T07:42:24.056Z,101362.03
2023-05-20T07:44:56.030Z,101359.19
2023-05-20T07:47:23.527Z,101362.25
2023-05-20T07:49:50.850Z,101356.69
2023-05-20T07:52:18.205Z,101346.88
2023-05-20T07:54:45.998Z,101350.03
2023-05-20T07:57:13.453Z,101342.47
2023-05-20T07:59:41.511Z,101346.06
2023-05-20T08:02:08.950Z,101344.16
2023-05-20T08:04:37.020Z,101347.88
2023-05-20T08:07:04.744Z,101342.00
2023-05-20T08:09:41.662Z,101335.09
2023-05-20T08:12:09.087Z,101344.44
2023-05-20T08:14:36.441Z,101339.88
2023-05-20T08:17:04.210Z,101336.81
2023-05-20T08:19:31.892Z,101328.91
2023-05-20T08:21:59.244Z,101330.63
2023-05-20T08:24:27.120Z,101325.22
2023-05-20T08:26:55.175Z,101330.16
2023-05-20T08:29:25.043Z,101321.75
2023-05-20T08:31:52.534Z,101318.44
2023-05-20T08:34:21.070Z,101329.06
2023-05-20T08:36:48.325Z,101320.44
2023-05-20T08:39:15.872Z,101326.09
2023-05-20T08:41:43.448Z,101315.13
2023-05-20T08:44:11.840Z,101317.25
2023-05-20T08:46:40.897Z,101310.72
2023-05-20T08:49:08.908Z,101305.03
2023-05-20T08:51:36.736Z,101300.44
2023-05-20T08:54:04.175Z,101293.25
2023-05-20T08:56:32.857Z,101298.97
2023-05-20T08:59:00.169Z,101291.50
2023-05-20T09:01:27.536Z,101301.66
2023-05-20T09:03:54.825Z,101303.34
2023-05-20T09:06:22.249Z,101297.81
2023-05-20T09:08:50.786Z,101301.63
2023-05-20T09:11:18.349Z,101297.47
2023-05-20T09:13:45.697Z,101292.47
2023-05-20T09:16:13.594Z,101287.72
2023-05-20T09:18:41.733Z,101287.63
2023-05-20T09:21:10.324Z,101289.38
2023-05-20T09:23:38.486Z,101295.09
2023-05-20T09:26:06.165Z,101278.03
2023-05-20T09:28:33.836Z,101276.34
2023-05-20T09:31:01.558Z,101279.00
2023-05-20T09:33:30.371Z,101267.75
2023-05-20T09:36:04.770Z,101273.31
2023-05-20T09:38:38.063Z,101268.53
2023-05-20T09:41:13.121Z,101264.19
2023-05-20T09:43:40.857Z,101271.09
2023-05-20T09:46:08.690Z,101254.28
2023-05-20T09:48:39.959Z,101255.78
2023-05-20T09:51:08.046Z,101247.88
2023-05-20T09:53:36.148Z,101243.38
2023-05-20T09:56:04.172Z,101258.00
2023-05-20T09:58:33.910Z,101252.28
2023-05-20T10:01:01.925Z,101245.34
2023-05-20T10:03:30.047Z,101241.50
2023-05-20T10:06:20.425Z,101238.16
2023-05-20T10:09:12.977Z,101241.28
2023-05-20T10:12:04.942Z,101224.56
2023-05-20T10:14:57.599Z,101223.75
2023-05-20T10:17:43.807Z,101223.13
2023-05-20T10:20:13.921Z,101231.75
2023-05-20T10:22:41.279Z,101216.16
2023-05-20T10:25:12.998Z,101217.97
2023-05-20T10:27:47.445Z,101209.09
2023-05-20T10:30:19.922Z,101213.63
2023-05-20T10:33:00.722Z,101212.50
2023-05-20T10:35:28.771Z,101203.63
2023-05-20T10:38:08.334Z,101213.84
2023-05-20T10:40:36.345Z,101202.00
2023-05-20T10:43:11.698Z,101211.56
2023-05-20T10:45:52.991Z,101217.72
2023-05-20T10:48:25.496Z,101190.13
2023-05-20T10:51:06.145Z,101201.09
2023-05-20T10:53:41.164Z,101189.66
2023-05-20T10:56:18.996Z,101206.53
2023-05-20T10:58:46.638Z,101194.81
2023-05-20T11:01:14.609Z,101187.69
2023-05-20T11:03:44.073Z,101177.38
2023-05-20T11:06:17.569Z,101176.91
2023-05-20T11:08:46.339Z,101173.25
2023-05-20T11:11:15.383Z,101183.13
2023-05-20T11:13:42.782Z,101178.91
2023-05-20T11:16:10.231Z,101170.66
2023-05-20T11:18:37.479Z,101174.13
2023-05-20T11:21:04.831Z,101168.91
2023-05-20T11:23:32.378Z,101174.31
2023-05-20T11:25:59.816Z,101166.75
2023-05-20T11:28:27.292Z,101165.44
2023-05-20T11:30:55.421Z,101170.47
2023-05-20T11:33:26.653Z,101165.06
2023-05-20T11:35:54.402Z,101164.50
2023-05-20T11:38:22.047Z,101170.53
2023-05-20T11:40:54.433Z,101171.31
2023-05-20T11:43:23.554Z,101152.34
2023-05-20T11:45:56.200Z,101175.78
2023-05-20T11:48:24.045Z,101172.44
2023-05-20T11:50:53.688Z,101161.56
2023-05-20T11:53:22.786Z,101163.25
2023-05-20T11:55:55.355Z,101153.88
2023-05-20T11:58:24.467Z,101148.00
2023-05-20T12:00:59.142Z,101149.25
2023-05-20T12:03:29.713Z,101148.38
2023-05-20T12:05:57.081Z,101144.16
2023-05-20T12:08:24.547Z,101141.75
2023-05-20T12:10:52.040Z,101143.56
2023-05-20T12:13:19.603Z,101150.81
2023-05-20T12:15:47.185Z,101137.44
2023-05-20T12:18:14.721Z,101145.34
2023-05-20T12:20:42.924Z,101134.19
2023-05-20T12:23:10.441Z,101139.88
2023-05-20T12:25:37.779Z,101122.28
2023-05-20T12:28:05.276Z,101122.00
2023-05-20T12:30:32.803Z,101127.47
2023-05-20T12:33:00.259Z,101128.41
2023-05-20T12:35:46.809Z,101125.75
2023-05-20T12:38:14.114Z,101132.38
2023-05-20T12:40:41.438Z,101122.69
2023-05-20T12:43:09.249Z,101121.25
2023-05-20T12:45:36.524Z,101118.44
2023-05-20T12:48:04.863Z,101109.63
2023-05-20T12:50:32.292Z,101122.50
2023-05-20T12:52:59.937Z,101110.94
2023-05-20T12:55:27.389Z,101106.69
2023-05-20T12:57:56.293Z,101099.25
2023-05-20T13:00:23.710Z,101106.13
2023-05-20T13:02:52.443Z,101103.28
2023-05-20T13:05:20.479Z,101108.16
2023-05-20T13:07:49.039Z,101113.09
2023-05-20T13:10:17.921Z,101112.56
2023-05-20T13:12:46.045Z,101106.09
2023-05-20T13:15:14.674Z,101110.59
2023-05-20T13:17:42.762Z,101109.94
2023-05-20T13:20:11.078Z,101097.38
2023-05-20T13:22:38.457Z,101106.13
2023-05-20T13:25:06.716Z,101104.63
2023-05-20T13:27:33.983Z,101096.22
2023-05-20T13:30:01.909Z,101099.97
2023-05-20T13:32:29.245Z,101101.44
2023-05-20T13:34:57.105Z,101096.34
2023-05-20T13:37:24.458Z,101094.09
2023-05-20T13:39:51.889Z,101083.56
2023-05-20T13:42:19.261Z,101085.72
2023-05-20T13:44:46.838Z,101086.09
2023-05-20T13:47:14.238Z,101086.00
2023-05-20T13:49:41.573Z,101082.44
2023-05-20T13:52:09.210Z,101078.16
2023-05-20T13:54:36.745Z,101075.72
2023-05-20T13:57:08.090Z,101073.88
2023-05-20T13:59:35.512Z,101071.63
2023-05-20T14:02:03.163Z,101076.03
2023-05-20T14:04:39.403Z,101060.56
2023-05-20T14:07:09.362Z,101059.63
2023-05-20T14:09:37.333Z,101060.22
2023-05-20T14:12:05.805Z,101066.03
2023-05-20T14:14:33.216Z,101062.50
2023-05-20T14:17:00.476Z,101058.25
2023-05-20T14:19:27.798Z,101058.31
2023-05-20T14:21:55.296Z,101072.56
2023-05-20T14:24:23.773Z,101057.31
2023-05-20T14:26:51.329Z,101066.38
2023-05-20T14:29:18.786Z,101056.94
2023-05-20T14:31:46.380Z,101052.22
2023-05-20T14:34:13.854Z,101041.97
2023-05-20T14:36:41.205Z,101041.75
2023-05-20T14:39:08.498Z,101038.84
2023-05-20T14:41:36.728Z,101036.53
2023-05-20T14:44:04.059Z,101037.09
2023-05-20T14:46:31.597Z,101035.97
2023-05-20T14:48:58.845Z,101047.88
2023-05-20T14:51:26.300Z,101031.56
2023-05-20T14:53:53.767Z,101046.31
2023-05-20T14:56:21.622Z,101041.06
2023-05-20T14:58:48.887Z,101037.28
2023-05-20T15:01:16.272Z,101028.69
2023-05-20T15:03:43.663Z,101035.97
2023-05-20T15:06:11.070Z,101033.91
2023-05-20T15:08:38.521Z,101051.91
2023-05-20T15:11:05.812Z,101039.91
2023-05-20T15:13:33.093Z,101031.59
2023-05-20T15:16:00.593Z,101039.69
2023-05-20T15:18:27.893Z,101033.16
2023-05-20T15:20:55.394Z,101035.72
2023-05-20T15:23:22.715Z,101036.22
2023-05-20T15:25:50.390Z,101032.19
2023-05-20T15:28:19.773Z,101024.91
2023-05-20T15:30:53.081Z,101025.53
2023-05-20T15:33:21.346Z,101030.75
2023-05-20T15:35:49.103Z,101017.81
2023-05-20T15:38:17.542Z,101027.75
2023-05-20T15:40:44.882Z,101027.69
2023-05-20T15:43:12.110Z,101026.97
2023-05-20T15:45:39.405Z,101030.00
2023-05-20T15:48:07.198Z,101024.66
2023-05-20T15:50:38.078Z,101019.69
2023-05-20T15:53:09.552Z,101022.03
2023-05-20T15:55:36.863Z,101014.84
2023-05-20T15:58:04.308Z,101014.78
2023-05-20T16:00:31.721Z,101022.97
2023-05-20T16:02:59.357Z,101021.91
2023-05-20T16:05:26.914Z,101036.03
2023-05-20T16:07:55.208Z,101011.69
2023-05-20T16:10:25.317Z,101029.00
2023-05-20T16:12:53.416Z,101033.72
2023-05-20T16:15:21.008Z,101029.06
2023-05-20T16:17:48.394Z,101032.38
2023-05-20T16:20:15.790Z,101041.28
2023-05-20T16:22:43.081Z,101030.44
2023-05-20T16:25:14.231Z,101035.31
2023-05-20T16:27:41.582Z,101036.28
2023-05-20T16:30:09.613Z,101023.84
2023-05-20T16:32:37.075Z,101033.03
2023-05-20T16:35:05.308Z,101036.47
2023-05-20T16:37:33.054Z,101037.34
2023-05-20T16:40:00.675Z,101040.22
2023-05-20T16:42:28.130Z,101036.84
2023-05-20T16:44:55.636Z,101038.78
2023-05-20T16:47:22.928Z,101039.38
2023-05-20T16:49:50.187Z,101036.78
2023-05-20T16:52:17.623Z,101042.44
2023-05-20T16:54:45.068Z,101035.31
2023-05-20T16:57:14.105Z,101040.16
2023-05-20T16:59:41.858Z,101030.50
2023-05-20T17:02:09.107Z,101037.72
2023-05-20T17:04:36.786Z,101031.81
2023-05-20T17:07:04.246Z,101031.94
2023-05-20T17:09:31.581Z,101041.38
2023-05-20T17:11:58.845Z,101041.66
2023-05-20T17:14:26.148Z,101037.94
2023-05-20T17:16:53.528Z,101027.63
2023-05-20T17:19:21.102Z,101029.13
2023-05-20T17:21:48.627Z,101032.47
2023-05-20T17:24:16.093Z,101034.97
2023-05-20T17:26:43.437Z,101036.00
2023-05-20T17:29:10.929Z,101033.03
2023-05-20T17:31:38.330Z,101026.28
2023-05-20T17:34:05.801Z,101015.56
2023-05-20T17:36:33.128Z,101019.97
2023-05-20T17:39:00.767Z,101012.16
2023-05-20T17:41:28.155Z,101026.53
2023-05-20T17:43:55.596Z,101015.56
2023-05-20T17:46:23.148Z,101014.38
2023-05-20T17:48:50.592Z,101019.81
2023-05-20T17:51:17.884Z,101016.81
2023-05-20T17:53:45.736Z,101021.00
2023-05-20T17:56:13.580Z,101019.16
2023-05-20T17:58:41.038Z,101025.41
2023-05-20T18:01:09.710Z,101019.53
2023-05-20T18:03:37.499Z,101026.22
2023-05-20T18:06:06.168Z,101026.88
2023-05-20T18:08:33.931Z,101038.50
2023-05-20T18:11:01.521Z,101036.53
2023-05-20T18:13:28.899Z,101032.34
2023-05-20T18:15:56.386Z,101041.53
2023-05-20T18:18:23.784Z,101048.09
2023-05-20T18:20:51.058Z,101042.66
2023-05-20T18:23:18.375Z,101041.53
2023-05-20T18:25:45.856Z,101052.66
2023-05-20T18:28:13.417Z,101044.41
2023-05-20T18:30:40.899Z,101056.84
2023-05-20T18:33:08.287Z,101059.22
2023-05-20T18:35:35.599Z,101057.50
2023-05-20T18:38:02.978Z,101053.97
2023-05-20T18:40:30.459Z,101067.59
2023-05-20T18:42:58.324Z,101067.44
2023-05-20T18:45:26.008Z,101068.03
2023-05-20T18:47:54.402Z,101066.91
2023-05-20T18:50:21.893Z,101074.16
2023-05-20T18:52:49.217Z,101064.41
2023-05-20T18:55:16.880Z,101069.78
2023-05-20T18:57:44.192Z,101070.53
2023-05-20T19:00:12.639Z,101072.22
2023-05-20T19:02:40.585Z,101067.06
2023-05-20T19:05:08.872Z,101075.81
2023-05-20T19:07:36.987Z,101066.69
2023-05-20T19:10:05.441Z,101066.38
2023-05-20T19:12:33.548Z,101066.16
2023-05-20T19:15:01.431Z,101076.78
2023-05-20T19:17:29.606Z,101073.25
2023-05-20T19:19:57.141Z,101071.19
2023-05-20T19:22:24.482Z,101063.22
2023-05-20T19:24:51.839Z,101062.28
2023-05-20T19:27:19.140Z,101062.00
2023-05-20T19:29:46.650Z,101059.84
2023-05-20T19:32:14.064Z,101074.84
2023-05-20T19:34:41.321Z,101061.59
2023-05-20T19:37:08.749Z,101069.22
2023-05-20T19:39:36.402Z,101065.53
2023-05-20T19:42:03.982Z,101068.41
2023-05-20T19:44:31.235Z,101079.47
2023-05-20T19:46:58.599Z,101074.13
2023-05-20T19:49:26.064Z,101085.94
2023-05-20T19:51:53.413Z,101083.63
2023-05-20T19:54:20.989Z,101082.97
2023-05-20T19:56:48.300Z,101081.91
2023-05-20T19:59:15.935Z,101091.91
2023-05-20T20:01:43.305Z,101078.50
2023-05-20T20:04:10.704Z,101067.84
2023-05-20T20:06:38.222Z,101076.66
2023-05-20T20:09:05.771Z,101069.94
2023-05-20T20:11:33.084Z,101075.59
2023-05-20T20:14:00.391Z,101071.09
2023-05-20T20:16:27.744Z,101067.47
2023-05-20T20:18:55.248Z,101079.41
2023-05-20T20:21:25.748Z,101086.41
2023-05-20T20:23:53.391Z,101082.50
2023-05-20T20:26:23.567Z,101081.19
2023-05-20T20:28:50.776Z,101087.75
2023-05-20T20:31:18.081Z,101074.81
2023-05-20T20:33:45.502Z,101086.84
2023-05-20T20:36:12.753Z,101088.22
2023-05-20T20:38:40.115Z,101090.81
2023-05-20T20:41:09.573Z,101095.41
2023-05-20T20:43:38.229Z,101090.47
2023-05-20T20:46:06.366Z,101093.63
2023-05-20T20:48:34.556Z,101099.72
2023-05-20T20:51:02.103Z,101094.88
2023-05-20T20:53:29.462Z,101087.13
2023-05-20T20:55:57.027Z,101084.00
2023-05-20T20:58:24.454Z,101093.06
2023-05-20T21:00:53.119Z,101094.72
2023-05-20T21:03:23.979Z,101094.06
2023-05-20T21:05:51.835Z,101092.28
2023-05-20T21:08:22.047Z,101099.47
2023-05-20T21:10:49.252Z,101096.69
2023-05-20T21:13:16.472Z,101088.72
2023-05-20T21:15:46.403Z,101084.41
2023-05-20T21:18:16.530Z,101090.53
2023-05-20T21:20:43.795Z,101085.66
2023-05-20T21:23:11.391Z,101090.44
2023-05-20T21:25:38.773Z,101099.63
2023-05-20T21:28:06.520Z,101089.81
2023-05-20T21:30:33.801Z,101093.59
2023-05-20T21:33:01.149Z,101089.81
2023-05-20T21:35:28.482Z,101092.22
2023-05-20T21:37:55.820Z,101083.00
2023-05-20T21:40:23.230Z,101078.53
2023-05-20T21:42:50.755Z,101080.00
2023-05-20T21:45:18.536Z,101081.44
2023-05-20T21:47:46.434Z,101076.41
2023-05-20T21:50:13.877Z,101064.22
2023-05-20T21:52:41.551Z,101070.91
2023-05-20T21:55:12.075Z,101071.69
2023-05-20T21:57:39.421Z,101080.00
2023-05-20T22:00:10.457Z,101087.09
2023-05-20T22:02:38.175Z,101081.56
2023-05-20T22:05:06.575Z,101084.22
2023-05-20T22:07:33.993Z,101076.91
2023-05-20T22:10:02.367Z,101072.75
2023-05-20T22:12:29.826Z,101083.88
2023-05-20T22:14:57.100Z,101075.31
2023-05-20T22:17:24.868Z,101071.72
2023-05-20T22:19:53.577Z,101073.31
2023-05-20T22:22:20.846Z,101078.22
2023-05-20T22:24:48.126Z,101091.09
2023-05-20T22:27:15.446Z,101078.09
2023-05-20T22:29:42.796Z,101090.63
2023-05-20T22:32:10.106Z,101085.75
2023-05-20T22:34:38.513Z,101090.84
2023-05-20T22:37:07.090Z,101085.28
2023-05-20T22:39:34.488Z,101077.41
2023-05-20T22:42:01.710Z,101077.63
2023-05-20T22:44:28.987Z,101078.41
2023-05-20T22:46:56.435Z,101072.03
2023-05-20T22:49:23.912Z,101074.84
2023-05-20T22:51:52.840Z,101081.31
2023-05-20T22:54:20.162Z,101074.38
2023-05-20T22:56:47.450Z,101069.47
2023-05-20T22:59:14.876Z,101068.31
2023-05-20T23:01:42.300Z,101067.97
2023-05-20T23:04:09.794Z,101067.88
2023-05-20T23:06:38.254Z,101071.97
2023-05-20T23:09:06.172Z,101069.75
2023-05-20T23:11:33.472Z,101066.03
2023-05-20T23:14:00.886Z,101073.06
2023-05-20T23:16:29.551Z,101072.50
2023-05-20T23:18:56.946Z,101073.31
2023-05-20T23:21:24.274Z,101072.88
2023-05-20T23:23:51.705Z,101076.44
2023-05-20T23:26:19.014Z,101078.28
2023-05-20T23:28:46.261Z,101080.28
2023-05-20T23:31:14.798Z,101076.31
2023-05-20T23:33:42.177Z,101073.19
2023-05-20T23:36:09.643Z,101072.16
2023-05-20T23:38:37.470Z,101063.78
2023-05-20T23:41:04.912Z,101067.16
2023-05-20T23:43:32.131Z,101076.84
2023-05-20T23:45:59.542Z,101076.72
2023-05-20T23:48:27.674Z,101068.78
2023-05-20T23:50:55.064Z,101066.59
2023-05-20T23:53:22.890Z,101070.19
2023-05-20T23:55:50.281Z,101071.44
2023-05-20T23:58:17.613Z,101067.50
